Time;durP1;ratioP1;P1;durP2;ratioP2;P2;SDS_P1;SDS_P2;PMS_P1;PMS_P2;Temp;Humidity;BMP_temperature;BMP_pressure;BME280_temperature;BME280_humidity;BME280_pressure;Samples;Min_cycle;Max_cycle;Signal;HPM_P1;HPM_P2
2023/03/26 00:01:18;;;;;;;;;4.00;0.50;;;;;13.03;53.43;100405.41;5075714;28;45405;-79
2023/03/26 00:03:45;;;;;;;;;0.00;0.00;;;;;12.78;54.04;100344.19;5075308;28;46569;-80
2023/03/26 00:06:14;;;;;;;;;0.00;0.00;;;;;12.98;54.68;100399.47;5060087;28;45490;-81
2023/03/26 00:08:41;;;;;;;;;3.25;0.25;;;;;12.86;55.80;100376.00;5059016;28;45295;-80
2023/03/26 00:11:09;;;;;;;;;0.00;0.00;;;;;12.85;55.81;100377.81;5067627;28;45277;-80
2023/03/26 00:13:35;;;;;;;;;2.00;0.00;;;;;12.67;55.92;100341.31;5057904;28;45379;-80
2023/03/26 00:16:01;;;;;;;;;1.50;1.00;;;;;12.35;56.33;100293.97;5068330;28;45962;-82
2023/03/26 00:18:30;;;;;;;;;2.00;0.00;;;;;12.59;56.21;100334.66;5058000;28;45260;-80
2023/03/26 00:21:01;;;;;;;;;0.00;0.00;;;;;12.26;57.47;100289.13;5057461;28;45677;-81
2023/03/26 00:23:28;;;;;;;;;1.00;1.00;;;;;12.19;57.29;100288.66;5057661;28;46442;-81
2023/03/26 00:25:54;;;;;;;;;0.00;0.00;;;;;12.24;57.71;100293.75;5058678;28;45403;-84
2023/03/26 00:28:21;;;;;;;;;0.00;0.00;;;;;12.33;58.27;100312.03;5057685;28;45382;-82
2023/03/26 04:30:20;;;;;;;;;0.00;0.00;;;;;10.99;67.00;99802.03;5049475;27;45777;-77
2023/03/26 04:32:45;;;;;;;;;0.50;0.00;;;;;10.94;66.48;99798.81;5044736;28;45443;-79
2023/03/26 04:35:15;;;;;;;;;0.00;0.00;;;;;10.87;66.77;99792.97;5049138;28;45335;-78
2023/03/26 04:37:43;;;;;;;;;0.00;0.00;;;;;10.94;66.45;99786.25;5040368;28;45387;-79
2023/03/26 04:40:19;;;;;;;;;0.00;0.00;;;;;11.02;66.60;99825.13;5044600;28;45579;-79
2023/03/26 04:42:45;;;;;;;;;0.00;0.00;;;;;10.96;66.65;99810.31;5056229;28;45427;-79
2023/03/26 04:45:16;;;;;;;;;0.00;0.00;;;;;10.89;66.68;99825.03;5040102;28;45340;-78
2023/03/26 04:47:45;;;;;;;;;1.25;0.00;;;;;10.97;66.50;99817.41;5044760;28;45408;-80
2023/03/26 04:50:10;;;;;;;;;0.00;0.00;;;;;10.96;66.88;99823.72;5028832;28;47907;-78
2023/03/26 04:52:36;;;;;;;;;0.00;0.00;;;;;10.83;66.33;99806.63;5031322;28;45711;-79
2023/03/26 04:55:05;;;;;;;;;0.00;0.00;;;;;10.68;66.48;99807.59;5040026;28;45281;-81
2023/03/26 04:57:36;;;;;;;;;0.00;0.00;;;;;10.80;66.69;99826.44;5048243;28;45407;-82
2023/03/26 05:00:10;;;;;;;;;0.00;0.00;;;;;10.79;66.63;99824.75;5058691;28;45315;-81
2023/03/26 05:02:38;;;;;;;;;0.50;0.00;;;;;10.91;66.88;99839.19;5048961;28;45598;-78
2023/03/26 05:05:04;;;;;;;;;0.00;0.00;;;;;10.92;65.98;99840.94;5038501;28;45505;-80
2023/03/26 05:07:30;;;;;;;;;0.00;0.00;;;;;10.77;66.21;99815.94;5048500;28;45671;-81
2023/03/26 05:09:56;;;;;;;;;0.00;0.00;;;;;10.75;66.18;99820.53;5049705;28;46441;-79
2023/03/26 05:12:21;;;;;;;;;1.00;0.00;;;;;10.79;66.73;99851.56;5053173;28;45508;-81
2023/03/26 05:14:47;;;;;;;;;0.75;0.00;;;;;10.91;66.71;99861.53;5018917;28;45358;-79
2023/03/26 05:17:14;;;;;;;;;0.00;0.00;;;;;10.76;66.35;99853.56;5054480;28;52404;-80
2023/03/26 05:19:40;;;;;;;;;0.00;0.00;;;;;10.78;66.66;99847.16;5039786;28;47191;-80
2023/03/26 05:22:05;;;;;;;;;1.00;0.00;;;;;10.86;66.61;99878.84;5040257;28;45436;-79
2023/03/26 05:24:31;;;;;;;;;1.00;0.00;;;;;10.76;66.54;99859.78;5038720;28;45217;-80
2023/03/26 05:26:56;;;;;;;;;0.00;0.00;;;;;10.71;66.23;99869.94;5045746;28;45568;-79
2023/03/26 05:29:23;;;;;;;;;1.00;0.00;;;;;10.81;66.62;99879.13;5057406;28;46149;-78
2023/03/26 05:31:49;;;;;;;;;1.00;0.00;;;;;10.84;66.83;99888.81;5050593;28;45699;-78
2023/03/26 05:34:14;;;;;;;;;0.00;0.00;;;;;10.63;66.69;99856.97;5058892;28;45606;-79
2023/03/26 05:36:41;;;;;;;;;1.00;0.00;;;;;10.90;66.30;99896.47;5072480;28;45542;-78
2023/03/26 05:39:07;;;;;;;;;1.00;0.00;;;;;10.79;66.69;99905.19;5056806;28;45286;-77
2023/03/26 05:41:33;;;;;;;;;0.00;0.00;;;;;10.80;65.99;99896.16;5065300;28;45455;-80
2023/03/26 05:43:58;;;;;;;;;0.00;0.00;;;;;10.68;66.74;99883.50;5069369;28;45373;-79
2023/03/26 05:46:23;;;;;;;;;0.00;0.00;;;;;10.84;66.41;99907.56;5057834;28;45310;-79
2023/03/26 05:48:50;;;;;;;;;0.00;0.00;;;;;10.76;66.16;99894.63;5064531;28;45470;-81
2023/03/26 05:51:16;;;;;;;;;0.00;0.00;;;;;10.73;65.96;99870.69;5076480;28;45291;-80
2023/03/26 05:53:42;;;;;;;;;0.00;0.00;;;;;10.88;65.64;99891.22;5076791;28;45434;-79
2023/03/26 05:56:08;;;;;;;;;0.00;0.00;;;;;10.67;65.82;99875.56;5076223;28;45294;-80
2023/03/26 05:58:34;;;;;;;;;0.00;0.00;;;;;10.70;65.89;99878.94;5061222;28;45455;-80
2023/03/26 06:01:04;;;;;;;;;0.00;0.00;;;;;10.86;65.79;99889.59;5065438;28;45221;-80
2023/03/26 06:03:35;;;;;;;;;0.00;0.00;;;;;10.70;65.06;99875.38;5077752;28;45327;-79
2023/03/26 06:06:02;;;;;;;;;1.00;0.00;;;;;10.82;65.53;99891.56;5078185;28;45422;-81
2023/03/26 06:08:28;;;;;;;;;0.00;0.00;;;;;10.78;65.05;99887.38;5070421;28;45438;-78
2023/03/26 06:10:58;;;;;;;;;0.00;0.00;;;;;10.66;64.85;99876.50;5039795;28;45539;-79
2023/03/26 06:13:24;;;;;;;;;0.00;0.00;;;;;10.83;64.44;99897.81;5069636;28;45464;-81
2023/03/26 06:15:49;;;;;;;;;0.25;0.25;;;;;10.70;64.68;99883.41;5059703;28;45244;-81
2023/03/26 06:18:14;;;;;;;;;0.00;0.00;;;;;10.80;64.33;99901.53;5058242;28;47110;-81
2023/03/26 06:20:41;;;;;;;;;8.50;2.50;;;;;10.85;64.48;99902.13;5077859;28;46026;-80
2023/03/26 06:23:06;;;;;;;;;0.00;0.00;;;;;10.97;63.83;99909.41;5072738;28;45353;-80
2023/03/26 06:25:31;;;;;;;;;3.75;1.00;;;;;10.89;63.73;99890.25;5078254;28;45295;-80
2023/03/26 06:27:57;;;;;;;;;0.00;0.00;;;;;11.04;63.38;99914.41;5061742;28;45295;-78
2023/03/26 06:30:22;;;;;;;;;0.00;0.00;;;;;10.93;63.48;99878.38;5037697;28;45960;-79
2023/03/26 06:32:47;;;;;;;;;0.00;0.00;;;;;11.05;63.42;99898.25;5037103;28;45335;-78
2023/03/26 06:35:13;;;;;;;;;0.00;0.00;;;;;11.13;63.21;99900.44;5068290;28;45358;-80
2023/03/26 06:37:38;;;;;;;;;2.00;0.75;;;;;11.12;63.13;99863.84;5055156;28;47409;-81
2023/03/26 06:40:04;;;;;;;;;0.00;0.00;;;;;11.14;62.73;99883.41;5051702;28;45500;-81
2023/03/26 06:42:30;;;;;;;;;0.00;0.00;;;;;11.07;62.51;99874.84;5057057;28;45421;-81
2023/03/26 06:44:55;;;;;;;;;1.00;0.00;;;;;11.14;62.93;99883.41;5048651;28;45439;-82
2023/03/26 06:47:21;;;;;;;;;3.00;0.00;;;;;11.13;62.49;99901.31;5038931;28;46363;-82
2023/03/26 06:49:46;;;;;;;;;0.00;0.00;;;;;10.92;62.95;99860.56;5072479;28;45523;-79
2023/03/26 06:52:11;;;;;;;;;0.50;0.00;;;;;10.78;62.65;99855.19;5060533;28;45309;-82
2023/03/26 06:54:37;;;;;;;;;1.50;0.75;;;;;11.22;62.44;99911.47;5077318;28;45659;-78
2023/03/26 06:57:03;;;;;;;;;0.00;0.00;;;;;11.23;62.50;99917.69;5072076;28;45662;-80
2023/03/26 06:59:28;;;;;;;;;1.00;0.00;;;;;11.06;62.40;99883.00;5055836;28;45616;-81
2023/03/26 07:01:54;;;;;;;;;0.00;0.00;;;;;11.21;62.29;99931.22;5068893;28;45403;-79
2023/03/26 07:04:20;;;;;;;;;3.00;0.25;;;;;11.21;62.67;99931.22;5075054;28;46093;-79
2023/03/26 07:06:45;;;;;;;;;2.50;0.00;;;;;11.13;62.48;99917.41;5074429;28;45272;-78
2023/03/26 07:09:10;;;;;;;;;1.00;0.00;;;;;11.22;62.81;99929.41;5056507;28;45581;-78
2023/03/26 07:11:36;;;;;;;;;2.75;0.00;;;;;11.13;62.48;99936.19;5074969;28;45394;-79
2023/03/26 07:14:01;;;;;;;;;0.00;0.00;;;;;10.79;62.76;99872.16;5052304;28;46584;-81
2023/03/26 07:16:26;;;;;;;;;3.00;0.00;;;;;11.14;62.31;99929.00;5055646;28;45413;-81
2023/03/26 07:18:54;;;;;;;;;0.00;0.00;;;;;11.07;62.96;99906.16;5055904;28;45355;-81
2023/03/26 07:21:20;;;;;;;;;0.00;0.00;;;;;11.11;62.77;99943.47;5057323;28;45348;-79
2023/03/26 07:23:46;;;;;;;;;0.00;0.00;;;;;10.77;62.87;99874.06;5068877;28;45519;-81
2023/03/26 07:26:43;;;;;;;;;1.00;1.00;;;;;10.57;62.96;99843.06;5057227;28;46046;-82
2023/03/26 07:29:47;;;;;;;;;0.00;0.00;;;;;11.19;62.84;99941.16;5076170;28;45459;-81
2023/03/26 07:32:27;;;;;;;;;1.00;0.00;;;;;10.92;62.61;99910.66;5060688;28;46348;-78
2023/03/26 07:35:00;;;;;;;;;1.50;0.00;;;;;11.14;63.02;99950.47;5047809;28;46483;-81
2023/03/26 07:37:44;;;;;;;;;0.00;0.00;;;;;11.21;63.14;99951.81;5079908;28;46535;-81
2023/03/26 07:40:15;;;;;;;;;0.00;0.00;;;;;11.21;63.26;99962.53;5052443;28;45266;-80
2023/03/26 07:43:33;;;;;;;;;0.50;0.50;;;;;11.32;62.69;99960.03;5059632;28;45277;-82
2023/03/26 07:45:59;;;;;;;;;2.00;0.00;;;;;11.12;62.69;99941.63;5024866;28;46782;-82
2023/03/26 07:48:28;;;;;;;;;4.25;0.75;;;;;11.17;63.13;99944.88;5057091;28;45418;-82
2023/03/26 07:50:54;;;;;;;;;2.75;0.75;;;;;11.25;63.30;99947.97;5057414;28;45494;-80
2023/03/26 07:53:20;;;;;;;;;3.25;1.00;;;;;11.25;63.24;99946.16;5074252;28;45319;-79
2023/03/26 07:55:58;;;;;;;;;0.25;0.00;;;;;11.46;63.09;99945.78;5074133;28;45394;-78
2023/03/26 07:58:57;;;;;;;;;0.75;0.75;;;;;11.61;62.68;99961.81;5057911;28;46110;-80
2023/03/26 08:01:53;;;;;;;;;1.00;1.00;;;;;11.56;62.12;99942.44;5061456;28;45280;-79
2023/03/26 08:04:43;;;;;;;;;0.00;0.00;;;;;11.82;62.54;99970.38;5056002;28;45516;-79
2023/03/26 08:07:20;;;;;;;;;3.25;1.00;;;;;11.89;62.31;99960.97;5075373;28;45610;-79
2023/03/26 08:10:15;;;;;;;;;0.00;0.00;;;;;11.85;62.29;99980.03;5075855;28;46341;-80
2023/03/26 08:12:53;;;;;;;;;0.75;0.75;;;;;11.57;62.23;99941.47;5075986;28;45402;-81
2023/03/26 08:15:28;;;;;;;;;0.00;0.00;;;;;11.77;62.50;99979.66;5043797;28;45623;-80
2023/03/26 08:18:11;;;;;;;;;2.00;0.00;;;;;11.74;62.48;99992.31;5048183;28;47135;-81
2023/03/26 08:20:56;;;;;;;;;0.00;0.00;;;;;11.68;62.72;99973.88;5049967;28;47602;-78
2023/03/26 08:23:31;;;;;;;;;3.50;0.75;;;;;11.69;62.81;99983.66;5070692;28;45426;-80
2023/03/26 08:26:02;;;;;;;;;0.25;0.00;;;;;11.81;62.90;99991.94;5076455;28;45297;-79
2023/03/26 08:28:55;;;;;;;;;1.75;1.00;;;;;11.86;62.71;99976.41;5059656;28;46592;-81
2023/03/26 08:31:31;;;;;;;;;1.00;1.00;;;;;11.93;62.95;99991.16;5078213;28;47007;-78
2023/03/26 08:33:57;;;;;;;;;1.00;1.00;;;;;12.03;62.03;99984.25;5068511;28;45258;-78
2023/03/26 08:36:22;;;;;;;;;0.00;0.00;;;;;11.91;61.90;99950.97;5072114;28;45504;-78
2023/03/26 08:38:49;;;;;;;;;0.00;0.00;;;;;12.04;61.88;99988.66;5068067;28;45525;-76
2023/03/26 08:41:27;;;;;;;;;1.25;0.50;;;;;11.86;62.41;99979.09;5039388;28;47019;-77
2023/03/26 08:44:02;;;;;;;;;0.50;0.50;;;;;11.94;61.69;99995.56;5042474;28;45514;-76
2023/03/26 08:47:05;;;;;;;;;2.00;0.25;;;;;12.05;61.63;100009.19;5065679;28;45449;-77
2023/03/26 08:49:42;;;;;;;;;0.00;0.00;;;;;11.96;61.58;100020.53;5064960;28;45624;-75
2023/03/26 08:52:23;;;;;;;;;1.00;0.00;;;;;11.96;61.49;99990.97;5076147;28;45858;-76
2023/03/26 08:55:18;;;;;;;;;4.00;1.00;;;;;11.99;61.00;99998.84;5063438;28;45569;-76
2023/03/26 08:57:55;;;;;;;;;1.00;0.00;;;;;12.08;60.96;100004.47;5040506;28;45467;-73
2023/03/26 09:00:38;;;;;;;;;0.00;0.00;;;;;12.07;60.81;100002.78;5075015;28;45522;-74
2023/03/26 09:03:22;;;;;;;;;0.00;0.00;;;;;11.77;60.01;99967.09;5072025;28;46301;-77
2023/03/26 09:06:02;;;;;;;;;0.00;0.00;;;;;12.05;60.40;100011.88;5062731;28;45439;-77
2023/03/26 09:08:49;;;;;;;;;0.00;0.00;;;;;12.09;59.95;100006.19;5050253;28;45474;-75
2023/03/26 09:11:20;;;;;;;;;0.00;0.00;;;;;11.90;59.85;99992.25;5067431;28;45403;-77
2023/03/26 09:14:05;;;;;;;;;0.00;0.00;;;;;12.00;59.56;100013.97;5072732;28;45459;-75
2023/03/26 09:17:07;;;;;;;;;0.00;0.00;;;;;11.99;59.51;100006.91;5064038;28;45641;-77
2023/03/26 09:19:51;;;;;;;;;1.00;1.00;;;;;11.99;58.92;100026.56;5069948;28;45474;-77
2023/03/26 09:22:39;;;;;;;;;1.00;0.00;;;;;12.09;58.88;100013.41;5072739;28;45222;-78
2023/03/26 09:25:29;;;;;;;;;0.00;0.00;;;;;12.08;58.70;100022.41;5074815;28;46793;-75
2023/03/26 09:28:08;;;;;;;;;0.00;0.00;;;;;12.15;57.93;100026.47;5075657;28;45564;-76
2023/03/26 09:30:46;;;;;;;;;0.00;0.00;;;;;12.18;57.81;100020.00;5074932;28;45319;-78
2023/03/26 09:33:26;;;;;;;;;0.25;0.00;;;;;12.17;57.24;100019.16;5053541;28;46616;-75
2023/03/26 09:36:18;;;;;;;;;1.25;0.00;;;;;12.08;57.89;100035.84;5046103;28;47139;-78
2023/03/26 09:38:58;;;;;;;;;0.00;0.00;;;;;12.06;57.67;100045.84;5055153;28;45455;-76
2023/03/26 09:41:38;;;;;;;;;0.00;0.00;;;;;11.90;57.54;100035.22;5048518;28;45443;-77
2023/03/26 09:44:32;;;;;;;;;0.25;0.25;;;;;11.96;57.86;100045.56;5076600;28;45561;-76
2023/03/26 09:47:28;;;;;;;;;0.00;0.00;;;;;12.06;57.71;100062.84;5057716;28;47327;-76
2023/03/26 09:50:18;;;;;;;;;0.00;0.00;;;;;11.96;58.01;100048.25;5070864;28;45471;-76
2023/03/26 09:53:19;;;;;;;;;0.00;0.00;;;;;12.02;58.35;100052.38;5058385;28;45620;-76
2023/03/26 09:55:59;;;;;;;;;0.00;0.00;;;;;11.90;58.34;100024.47;5014188;28;45314;-74
2023/03/26 09:58:44;;;;;;;;;0.00;0.00;;;;;12.24;57.98;100052.75;5062748;28;46616;-77
2023/03/26 10:01:15;;;;;;;;;1.00;0.00;;;;;12.30;57.64;100048.81;5032838;28;45498;-76
2023/03/26 10:03:47;;;;;;;;;0.00;0.00;;;;;12.33;57.10;100049.47;5063319;28;45389;-75
2023/03/26 10:06:25;;;;;;;;;47.75;36.50;;;;;12.37;56.90;100048.31;5063992;28;45323;-76
2023/03/26 10:09:05;;;;;;;;;1.00;0.00;;;;;12.33;57.02;100062.94;5069350;28;45339;-76
2023/03/26 10:11:55;;;;;;;;;0.00;0.00;;;;;12.30;57.01;100051.50;5061431;28;45473;-79
2023/03/26 10:14:53;;;;;;;;;1.00;0.00;;;;;12.29;57.83;100060.50;5074632;28;45490;-77
2023/03/26 10:17:35;;;;;;;;;0.00;0.00;;;;;12.17;57.19;100063.97;5072316;28;45568;-76
2023/03/26 10:20:07;;;;;;;;;0.00;0.00;;;;;12.18;57.46;100065.69;5074359;28;46087;-75
2023/03/26 10:22:54;;;;;;;;;0.00;0.00;;;;;12.24;56.95;100074.25;5068833;28;45454;-74
2023/03/26 10:25:55;;;;;;;;;0.00;0.00;;;;;12.30;57.76;100078.38;5063292;28;45516;-74
2023/03/26 10:28:32;;;;;;;;;0.75;0.00;;;;;12.34;56.92;100080.75;5073553;28;45909;-75
2023/03/26 10:31:42;;;;;;;;;2.00;1.00;;;;;12.47;56.81;100080.84;5054943;28;46557;-78
2023/03/26 10:34:07;;;;;;;;;0.00;0.00;;;;;12.48;56.76;100086.13;4973372;28;45360;-78
2023/03/26 10:36:53;;;;;;;;;0.00;0.00;;;;;12.39;56.91;100070.59;4983125;28;45416;-78
2023/03/26 10:39:30;;;;;;;;;2.75;0.00;;;;;12.45;57.07;100089.00;5024271;28;45461;-77
2023/03/26 10:42:04;;;;;;;;;2.00;0.00;;;;;12.40;56.91;100103.72;5036967;28;46450;-75
2023/03/26 10:44:48;;;;;;;;;1.50;0.50;;;;;12.48;57.13;100077.19;5055113;28;45403;-75
2023/03/26 10:47:54;;;;;;;;;1.50;0.00;;;;;12.57;57.66;100084.69;5055359;28;45339;-74
2023/03/26 10:50:31;;;;;;;;;0.75;0.00;;;;;12.41;56.10;100046.31;5054389;28;45292;-78
2023/03/26 10:53:17;;;;;;;;;0.00;0.00;;;;;12.86;56.44;100086.31;5036586;28;48118;-77
2023/03/26 10:55:46;;;;;;;;;0.00;0.00;;;;;12.69;56.04;100048.91;5054773;28;45398;-75
2023/03/26 10:58:24;;;;;;;;;0.00;0.00;;;;;13.02;55.68;100083.47;5063100;28;45221;-78
2023/03/26 11:00:59;;;;;;;;;1.00;0.00;;;;;13.14;55.34;100085.38;5054686;28;45281;-75
2023/03/26 11:03:54;;;;;;;;;0.50;0.50;;;;;13.21;54.96;100092.06;5054740;28;45520;-76
2023/03/26 11:06:38;;;;;;;;;3.00;0.00;;;;;13.27;54.54;100083.59;5054620;28;45275;-76
2023/03/26 11:09:25;;;;;;;;;0.00;0.00;;;;;13.47;54.92;100084.94;5037419;28;45388;-76
2023/03/26 11:11:56;;;;;;;;;0.00;0.00;;;;;13.61;54.22;100081.28;5055121;28;45928;-74
2023/03/26 11:14:49;;;;;;;;;0.00;0.00;;;;;13.71;53.81;100076.97;5054888;28;45387;-76
2023/03/26 11:17:20;;;;;;;;;0.00;0.00;;;;;13.68;53.56;100079.06;5057646;28;45468;-76
2023/03/26 11:20:09;;;;;;;;;0.00;0.00;;;;;13.61;53.89;100100.13;5054619;28;45356;-76
2023/03/26 11:23:20;;;;;;;;;0.00;0.00;;;;;13.62;53.73;100075.78;5054417;28;45603;-76
2023/03/26 11:26:01;;;;;;;;;1.00;1.00;;;;;13.80;52.73;100068.25;5033700;28;46596;-78
2023/03/26 11:28:35;;;;;;;;;0.00;0.00;;;;;13.86;52.44;100067.88;5054342;28;45198;-76
2023/03/26 11:31:16;;;;;;;;;0.00;0.00;;;;;13.88;52.05;100065.03;5054195;28;45319;-79
2023/03/26 11:33:46;;;;;;;;;0.00;0.00;;;;;13.97;51.48;100035.59;5054063;28;45347;-76
2023/03/26 11:36:21;;;;;;;;;0.00;0.00;;;;;14.17;49.96;100055.75;5053983;28;46169;-76
2023/03/26 11:38:49;;;;;;;;;1.00;0.00;;;;;14.24;49.50;100056.16;5061356;28;45229;-76
2023/03/26 11:41:17;;;;;;;;;0.00;0.00;;;;;14.29;48.76;100054.03;5074572;28;45390;-77
2023/03/26 11:43:48;;;;;;;;;0.00;0.00;;;;;14.13;47.53;100064.16;5074109;28;45544;-74
2023/03/26 11:46:20;;;;;;;;;0.00;0.00;;;;;14.06;48.25;100030.53;5066451;28;46984;-75
2023/03/26 11:49:09;;;;;;;;;0.50;0.00;;;;;14.22;47.96;100066.19;5067056;28;45480;-74
2023/03/26 11:51:38;;;;;;;;;1.00;0.00;;;;;14.16;48.15;100037.00;5055610;28;45530;-80
2023/03/26 11:54:06;;;;;;;;;0.00;0.00;;;;;14.21;48.83;100069.84;5054887;28;45401;-76
2023/03/26 11:56:48;;;;;;;;;0.00;0.00;;;;;14.02;49.62;100078.41;5054498;28;46126;-81
2023/03/26 11:59:18;;;;;;;;;0.00;0.00;;;;;13.95;50.17;100079.81;5059284;28;45466;-79
2023/03/26 12:01:58;;;;;;;;;0.00;0.00;;;;;13.88;50.40;100094.66;5038207;28;45344;-75
2023/03/26 12:04:34;;;;;;;;;1.00;0.00;;;;;13.86;50.89;100083.16;5074767;28;45556;-79
2023/03/26 12:07:31;;;;;;;;;0.00;0.00;;;;;13.86;50.54;100093.94;5074236;28;45311;-76
2023/03/26 12:09:59;;;;;;;;;2.00;0.00;;;;;13.66;51.76;100098.00;5069257;28;45453;-76
2023/03/26 12:12:40;;;;;;;;;0.00;0.00;;;;;13.32;50.76;100074.34;5066275;28;45273;-76
2023/03/26 12:15:14;;;;;;;;;0.75;0.00;;;;;13.17;52.55;100109.41;5068347;28;45472;-77
2023/03/26 12:17:40;;;;;;;;;0.00;0.00;;;;;13.00;53.75;100096.19;5058035;28;46303;-78
2023/03/26 12:20:24;;;;;;;;;0.00;0.00;;;;;12.98;53.49;100098.09;5044150;28;47202;-77
2023/03/26 12:22:58;;;;;;;;;0.00;0.00;;;;;13.56;53.55;100095.06;5047842;28;45536;-77
2023/03/26 12:25:32;;;;;;;;;0.00;0.00;;;;;14.01;52.31;100042.50;5077380;28;45316;-79
2023/03/26 12:28:01;;;;;;;;;0.50;0.00;;;;;15.13;49.13;100084.66;5077540;28;45402;-74
2023/03/26 12:30:40;;;;;;;;;0.00;0.00;;;;;16.04;47.01;100059.63;5077050;28;45336;-74
2023/03/26 12:33:21;;;;;;;;;0.00;0.00;;;;;16.47;46.76;100065.16;5076382;28;45308;-75
2023/03/26 12:35:47;;;;;;;;;0.00;0.00;;;;;16.55;46.50;100082.50;5042331;28;46552;-74
2023/03/26 12:38:39;;;;;;;;;0.00;0.00;;;;;16.17;47.25;100092.81;5044719;28;47645;-73
2023/03/26 12:41:08;;;;;;;;;0.00;0.00;;;;;15.63;50.55;100089.91;5055575;28;45375;-72
2023/03/26 12:43:46;;;;;;;;;0.00;0.00;;;;;15.78;52.83;100073.34;5056035;28;45291;-72
2023/03/26 12:46:30;;;;;;;;;0.00;0.00;;;;;16.99;51.02;100056.34;5038500;28;45770;-71
2023/03/26 12:49:04;;;;;;;;;0.00;0.00;;;;;18.42;46.56;100036.66;5047475;28;47622;-72
2023/03/26 12:51:47;;;;;;;;;2.00;0.00;;;;;20.12;44.68;100018.97;5060447;28;46276;-73
2023/03/26 12:54:34;;;;;;;;;0.00;0.00;;;;;21.80;41.62;100033.75;5061655;28;46774;-74
2023/03/26 12:57:29;;;;;;;;;0.50;0.50;;;;;22.90;38.10;100015.59;5073219;28;45435;-73
2023/03/26 13:00:20;;;;;;;;;1.50;0.00;;;;;23.06;37.34;100022.09;5060143;28;47179;-73
2023/03/26 13:03:16;;;;;;;;;0.00;0.00;;;;;22.10;38.68;100032.47;5066008;28;45557;-71
2023/03/26 13:06:00;;;;;;;;;0.00;0.00;;;;;21.38;39.37;100028.13;5072968;28;45541;-74
2023/03/26 13:08:38;;;;;;;;;0.00;0.00;;;;;20.62;40.98;100028.50;5066366;28;45379;-74
2023/03/26 13:11:25;;;;;;;;;0.00;0.00;;;;;19.95;41.87;100039.63;5057538;28;45546;-78
2023/03/26 13:13:59;;;;;;;;;0.50;0.00;;;;;19.13;43.15;100014.81;5075565;28;45405;-74
2023/03/26 13:16:45;;;;;;;;;0.00;0.00;;;;;18.71;44.32;100039.50;5072605;28;45192;-76
2023/03/26 13:19:21;;;;;;;;;0.00;0.00;;;;;18.19;44.68;100046.00;5057714;28;45433;-75
2023/03/26 13:21:53;;;;;;;;;0.00;0.00;;;;;17.66;45.04;100040.69;5073347;28;45465;-73
2023/03/26 13:24:42;;;;;;;;;0.00;0.00;;;;;17.04;46.85;100059.53;5075008;28;45507;-71
2023/03/26 13:27:07;;;;;;;;;1.50;0.00;;;;;16.58;48.38;100038.09;5076307;28;45397;-74
2023/03/26 13:29:56;;;;;;;;;0.00;0.00;;;;;16.39;48.93;100033.31;5076838;28;45464;-70
2023/03/26 13:32:21;;;;;;;;;0.00;0.00;;;;;16.21;50.40;100032.97;5076951;28;46071;-74
2023/03/26 13:35:07;;;;;;;;;0.00;0.00;;;;;15.98;50.47;100006.91;5077376;28;45260;-70
2023/03/26 13:37:57;;;;;;;;;0.00;0.00;;;;;16.78;48.84;100037.34;5058725;28;45292;-71
2023/03/26 13:40:41;;;;;;;;;0.00;0.00;;;;;17.14;48.30;100037.97;5076384;28;45501;-69
2023/03/26 13:43:09;;;;;;;;;0.00;0.00;;;;;16.90;46.17;100047.16;5075892;28;46419;-72
2023/03/26 13:45:57;;;;;;;;;1.00;0.00;;;;;16.55;46.12;100046.47;5075867;28;45424;-71
2023/03/26 13:48:27;;;;;;;;;0.00;0.00;;;;;16.35;46.51;100042.66;5057292;28;45319;-78
2023/03/26 13:51:00;;;;;;;;;0.00;0.00;;;;;15.96;48.41;100037.75;5062590;28;45442;-72
2023/03/26 13:53:35;;;;;;;;;0.00;0.00;;;;;15.73;47.74;100055.78;5062827;28;45528;-71
2023/03/26 13:56:01;;;;;;;;;0.00;0.00;;;;;15.28;48.72;100055.59;5076079;28;45555;-67
2023/03/26 13:58:56;;;;;;;;;3.00;0.00;;;;;15.09;49.01;100039.06;5059322;28;45682;-69
2023/03/26 14:01:33;;;;;;;;;0.00;0.00;;;;;15.13;49.84;100033.34;5055668;28;45633;-69
2023/03/26 14:04:37;;;;;;;;;0.00;0.00;;;;;15.43;49.03;100031.97;5055449;28;45437;-71
2023/03/26 14:07:12;;;;;;;;;1.00;0.00;;;;;16.10;48.19;100051.03;5014337;28;45579;-75
2023/03/26 14:10:00;;;;;;;;;0.50;0.00;;;;;16.45;46.52;100040.06;5063178;28;45375;-72
2023/03/26 14:13:02;;;;;;;;;0.00;0.00;;;;;17.64;45.88;100034.53;5075768;28;45489;-73
2023/03/26 14:15:39;;;;;;;;;0.00;0.00;;;;;18.57;42.65;100029.00;5067052;28;46189;-73
2023/03/26 14:18:23;;;;;;;;;0.00;0.00;;;;;19.26;39.98;100031.69;5055508;28;45449;-72
2023/03/26 14:21:06;;;;;;;;;1.00;0.00;;;;;19.73;39.55;100037.25;5055295;28;45340;-73
2023/03/26 14:23:48;;;;;;;;;0.00;0.00;;;;;20.48;39.17;100022.72;5054528;28;45355;-78
2023/03/26 14:26:25;;;;;;;;;0.00;0.00;;;;;21.23;38.19;100027.84;5055228;28;46088;-75
2023/03/26 14:29:23;;;;;;;;;0.00;0.00;;;;;22.04;37.36;100027.63;5036886;28;45283;-74
2023/03/26 14:32:04;;;;;;;;;0.00;0.00;;;;;22.86;35.46;100019.69;5055343;28;45421;-74
2023/03/26 14:34:41;;;;;;;;;0.00;0.00;;;;;23.64;33.52;100011.09;5054918;28;45348;-74
2023/03/26 14:37:18;;;;;;;;;0.00;0.00;;;;;24.20;31.77;100023.81;5061950;28;45448;-74
2023/03/26 14:40:20;;;;;;;;;0.50;0.00;;;;;24.39;31.23;100007.03;5075230;28;45440;-71
2023/03/26 14:43:17;;;;;;;;;0.00;0.00;;;;;24.54;32.08;100022.72;5074918;28;45391;-73
2023/03/26 14:45:57;;;;;;;;;0.00;0.00;;;;;24.09;30.88;100025.03;5050667;28;45574;-72
2023/03/26 14:49:10;;;;;;;;;0.00;0.00;;;;;23.49;31.93;100031.94;5058620;28;46184;-72
2023/03/26 14:52:00;;;;;;;;;0.00;0.00;;;;;23.50;34.00;100041.84;4991415;28;45587;-74
2023/03/26 14:54:28;;;;;;;;;0.00;0.00;;;;;23.08;32.70;100020.94;5053084;28;45330;-72
2023/03/26 14:57:35;;;;;;;;;0.00;0.00;;;;;22.16;34.81;100027.22;5058305;28;45769;-74
2023/03/26 15:00:11;;;;;;;;;0.00;0.00;;;;;21.35;36.20;100040.19;5035133;28;47309;-75
2023/03/26 15:02:51;;;;;;;;;0.00;0.00;;;;;20.62;37.12;100039.41;5054910;28;45467;-72
2023/03/26 15:05:47;;;;;;;;;0.00;0.00;;;;;19.92;38.23;100048.09;5074577;28;45353;-72
2023/03/26 15:08:37;;;;;;;;;0.00;0.00;;;;;19.51;39.60;100046.56;5074516;28;45496;-72
2023/03/26 15:11:43;;;;;;;;;0.00;0.00;;;;;19.10;40.17;100051.28;5071809;28;46292;-74
2023/03/26 15:14:30;;;;;;;;;0.00;0.00;;;;;18.71;41.54;100057.66;5057287;28;45392;-74
2023/03/26 15:17:23;;;;;;;;;0.00;0.00;;;;;18.33;42.29;100070.03;5070000;28;47079;-71
2023/03/26 15:20:09;;;;;;;;;1.00;0.00;;;;;18.00;43.43;100094.69;5072930;28;45323;-73
2023/03/26 15:23:15;;;;;;;;;0.00;0.00;;;;;17.43;45.28;100104.09;5062455;28;45480;-73
2023/03/26 15:26:10;;;;;;;;;0.00;0.00;;;;;16.98;47.51;100115.06;5074448;28;45348;-72
2023/03/26 15:28:38;;;;;;;;;0.75;0.00;;;;;16.47;48.72;100124.69;5075043;28;45345;-71
2023/03/26 15:31:12;;;;;;;;;0.00;0.00;;;;;16.22;50.52;100128.47;5073125;28;45607;-70
2023/03/26 15:34:18;;;;;;;;;0.00;0.00;;;;;16.05;52.11;100126.25;5052633;28;48320;-71
2023/03/26 15:37:09;;;;;;;;;0.00;0.00;;;;;16.01;52.39;100111.22;5053217;28;45338;-72
2023/03/26 15:40:06;;;;;;;;;0.00;0.00;;;;;16.11;50.59;100115.81;5054684;28;45629;-73
2023/03/26 15:42:52;;;;;;;;;0.00;0.00;;;;;16.15;50.38;100092.97;5054514;28;45216;-72
2023/03/26 15:45:26;;;;;;;;;1.00;0.00;;;;;16.53;49.75;100116.06;5055210;28;47007;-71
2023/03/26 15:47:55;;;;;;;;;0.00;0.00;;;;;16.79;48.72;100114.00;5056890;28;45225;-71
2023/03/26 15:50:34;;;;;;;;;0.00;0.00;;;;;16.88;48.46;100114.09;5071697;28;46194;-70
2023/03/26 15:53:17;;;;;;;;;0.00;0.00;;;;;17.07;48.16;100120.72;5058674;28;45237;-71
2023/03/26 15:55:54;;;;;;;;;0.00;0.00;;;;;17.19;47.58;100117.84;5056096;28;46054;-70
2023/03/26 15:58:29;;;;;;;;;0.00;0.00;;;;;17.27;46.95;100112.63;5073633;28;45500;-74
2023/03/26 16:01:36;;;;;;;;;0.75;0.00;;;;;17.21;47.22;100121.28;5074373;28;45455;-71
2023/03/26 16:04:11;;;;;;;;;0.00;0.00;;;;;17.13;46.88;100131.03;5025539;28;45411;-72
2023/03/26 16:07:08;;;;;;;;;0.00;0.00;;;;;16.92;48.30;100139.09;5053730;28;45483;-73
2023/03/26 16:09:51;;;;;;;;;0.50;0.00;;;;;16.79;46.71;100154.59;5018351;28;45567;-71
2023/03/26 16:12:27;;;;;;;;;0.00;0.00;;;;;16.60;47.03;100166.88;5065300;28;45405;-71
2023/03/26 16:15:06;;;;;;;;;0.00;0.00;;;;;16.41;47.88;100172.03;5066524;28;45472;-72
2023/03/26 16:18:05;;;;;;;;;1.00;0.00;;;;;16.19;47.41;100185.50;5053656;28;46498;-73